Time;durP1;ratioP1;P1;durP2;ratioP2;P2;SDS_P1;SDS_P2;PMS_P1;PMS_P2;Temp;Humidity;BMP_temperature;BMP_pressure;BME280_temperature;BME280_humidity;BME280_pressure;Samples;Min_cycle;Max_cycle;Signal;HPM_P1;HPM_P2
2023/04/20 00:01:46;;;;;;;9.53;8.83;;;6.70;75.20;;;;;;6287635;28;20233;-84
2023/04/20 00:04:50;;;;;;;11.37;10.53;;;6.60;75.20;;;;;;6281380;28;20241;-86
2023/04/20 00:07:54;;;;;;;10.07;9.30;;;6.60;75.30;;;;;;6290469;28;20263;-82
2023/04/20 00:10:57;;;;;;;10.27;9.47;;;6.60;75.30;;;;;;6292745;28;20751;-86
2023/04/20 00:14:02;;;;;;;9.13;8.47;;;6.70;75.20;;;;;;6285008;28;20241;-86
2023/04/20 00:17:05;;;;;;;9.87;9.10;;;6.60;75.20;;;;;;6294793;28;20234;-85
2023/04/20 00:20:11;;;;;;;8.50;8.10;;;6.60;75.40;;;;;;6285549;28;20248;-86
2023/04/20 00:23:14;;;;;;;9.80;9.10;;;6.60;75.40;;;;;;6278725;28;20249;-84
2023/04/20 00:26:18;;;;;;;10.17;9.37;;;6.60;75.40;;;;;;6291567;28;20260;-83
2023/04/20 00:29:23;;;;;;;9.60;8.90;;;6.60;75.50;;;;;;6284831;28;20248;-82
2023/04/20 00:32:27;;;;;;;9.77;9.03;;;6.60;75.50;;;;;;6283873;28;20245;-86
2023/04/20 00:35:30;;;;;;;9.90;9.13;;;6.60;75.50;;;;;;6281450;28;20236;-84
2023/04/20 00:38:34;;;;;;;10.23;9.43;;;6.60;75.30;;;;;;6281897;28;20321;-86
2023/04/20 00:41:37;;;;;;;9.60;9.00;;;6.50;75.50;;;;;;6287270;28;20303;-84
2023/04/20 00:44:42;;;;;;;9.00;8.40;;;6.50;75.70;;;;;;6291994;28;20248;-84
2023/04/20 00:47:46;;;;;;;8.93;8.30;;;6.50;75.40;;;;;;6289913;28;20234;-85
2023/04/20 00:50:50;;;;;;;9.63;8.83;;;6.50;75.40;;;;;;6293446;28;20271;-85
2023/04/20 00:53:53;;;;;;;9.13;8.37;;;6.50;75.50;;;;;;6280065;28;20240;-85
2023/04/20 00:57:01;;;;;;;9.10;8.43;;;6.50;75.40;;;;;;6278074;28;20233;-85
2023/04/20 01:00:07;;;;;;;8.97;8.37;;;6.50;75.60;;;;;;6291246;28;20240;-85
2023/04/20 01:03:11;;;;;;;9.13;8.43;;;6.50;75.60;;;;;;6290528;28;20241;-83
2023/04/20 01:06:15;;;;;;;10.07;9.30;;;6.40;75.70;;;;;;6287572;28;20319;-85
2023/04/20 01:09:18;;;;;;;8.93;8.33;;;6.50;75.80;;;;;;6279367;28;20238;-83
2023/04/20 01:12:22;;;;;;;8.93;8.37;;;6.50;75.90;;;;;;6290165;28;20255;-84
2023/04/20 01:15:26;;;;;;;9.30;8.73;;;6.50;75.80;;;;;;6291463;28;20378;-84
2023/04/20 01:18:40;;;;;;;9.60;8.80;;;6.50;75.80;;;;;;6291675;28;20526;-84
2023/04/20 01:21:43;;;;;;;9.53;8.80;;;6.50;75.60;;;;;;6287761;28;20974;-85
2023/04/20 01:24:48;;;;;;;9.70;8.90;;;6.50;75.70;;;;;;6275079;28;20326;-85
2023/04/20 01:27:52;;;;;;;9.43;8.73;;;6.50;75.70;;;;;;6287131;28;20268;-86
2023/04/20 01:30:55;;;;;;;10.10;9.30;;;6.40;75.60;;;;;;6286637;28;20257;-86
2023/04/20 01:33:58;;;;;;;10.00;9.30;;;6.40;75.80;;;;;;6281849;28;20328;-85
2023/04/20 01:37:02;;;;;;;10.03;9.33;;;6.30;76.00;;;;;;6286529;28;20260;-85
2023/04/20 01:40:09;;;;;;;10.30;9.40;;;6.30;76.10;;;;;;6284619;28;20230;-85
2023/04/20 01:43:13;;;;;;;11.50;10.50;;;6.30;76.20;;;;;;6287448;28;20253;-84
2023/04/20 01:46:17;;;;;;;9.80;9.10;;;6.30;76.40;;;;;;6288973;28;20241;-85
2023/04/20 01:49:20;;;;;;;11.20;10.40;;;6.30;76.30;;;;;;6284104;28;20241;-85
2023/04/20 01:52:23;;;;;;;11.70;10.70;;;6.30;76.20;;;;;;6291719;28;20229;-85
2023/04/20 01:55:28;;;;;;;11.40;10.30;;;6.40;76.10;;;;;;6275049;28;20270;-87
2023/04/20 01:58:31;;;;;;;11.70;10.60;;;6.30;76.20;;;;;;6293418;28;20295;-85
2023/04/20 02:01:34;;;;;;;12.43;11.43;;;6.20;76.20;;;;;;6297797;28;20233;-85
2023/04/20 02:04:38;;;;;;;11.70;10.70;;;6.20;76.50;;;;;;6301510;28;20269;-83
2023/04/20 02:07:41;;;;;;;11.50;10.50;;;6.20;76.50;;;;;;6305175;28;20248;-84
2023/04/20 02:10:46;;;;;;;12.03;10.93;;;6.20;76.50;;;;;;6310260;28;21184;-85
2023/04/20 02:13:49;;;;;;;11.60;10.60;;;6.20;76.80;;;;;;6316291;28;20229;-86
2023/04/20 02:16:52;;;;;;;12.13;11.10;;;6.20;76.70;;;;;;6289400;28;20312;-85
2023/04/20 02:19:56;;;;;;;12.77;11.60;;;6.20;76.90;;;;;;6292267;28;20233;-84
2023/04/20 02:22:59;;;;;;;13.10;12.00;;;6.20;77.00;;;;;;6292325;28;20320;-84
2023/04/20 02:26:06;;;;;;;12.70;11.50;;;6.20;77.00;;;;;;6293859;28;20375;-85
2023/04/20 02:29:09;;;;;;;13.80;12.43;;;6.20;77.00;;;;;;6284728;28;20716;-85
2023/04/20 02:32:12;;;;;;;13.03;12.00;;;6.30;77.00;;;;;;6291726;28;20245;-84
2023/04/20 02:35:16;;;;;;;12.93;11.73;;;6.20;77.00;;;;;;6280985;28;20787;-85
2023/04/20 02:38:19;;;;;;;13.63;12.43;;;6.30;77.10;;;;;;6286266;28;20233;-85
2023/04/20 02:41:24;;;;;;;13.07;11.80;;;6.30;77.20;;;;;;6287194;28;20244;-84
2023/04/20 02:44:27;;;;;;;13.60;12.47;;;6.30;76.90;;;;;;6286297;28;20312;-86
2023/04/20 02:47:33;;;;;;;12.90;11.80;;;6.30;76.90;;;;;;6279146;28;20275;-85
2023/04/20 02:50:37;;;;;;;12.97;11.97;;;6.30;76.90;;;;;;6282680;28;20249;-84
2023/04/20 02:53:40;;;;;;;13.03;11.73;;;6.30;76.90;;;;;;6285665;28;20363;-85
2023/04/20 02:56:45;;;;;;;13.80;12.57;;;6.40;77.00;;;;;;6284492;28;20243;-85
2023/04/20 02:59:48;;;;;;;14.77;13.23;;;6.40;77.10;;;;;;6296676;28;20226;-85
2023/04/20 03:02:54;;;;;;;12.90;11.80;;;6.40;77.10;;;;;;6283283;28;20249;-83
2023/04/20 03:05:58;;;;;;;14.63;13.43;;;6.40;76.90;;;;;;6285302;28;20538;-85
2023/04/20 03:09:02;;;;;;;13.93;12.60;;;6.50;76.80;;;;;;6279184;28;20310;-85
2023/04/20 03:12:07;;;;;;;14.73;13.43;;;6.40;76.80;;;;;;6290910;28;20331;-85
2023/04/20 03:15:11;;;;;;;16.23;14.63;;;6.50;76.90;;;;;;6288234;28;20799;-85
2023/04/20 03:18:14;;;;;;;15.63;14.23;;;6.50;76.70;;;;;;6291442;28;20370;-85
2023/04/20 03:21:17;;;;;;;15.33;13.93;;;6.50;76.60;;;;;;6279390;28;20238;-86
2023/04/20 03:24:21;;;;;;;15.43;13.90;;;6.50;76.70;;;;;;6286160;28;20253;-85
2023/04/20 03:27:25;;;;;;;14.57;13.27;;;6.50;76.60;;;;;;6281619;28;20244;-86
2023/04/20 03:30:29;;;;;;;15.30;13.90;;;6.60;76.50;;;;;;6283989;28;20855;-81
2023/04/20 03:33:32;;;;;;;15.20;13.90;;;6.60;76.70;;;;;;6289720;28;20243;-80
2023/04/20 03:36:36;;;;;;;14.37;12.97;;;6.50;76.80;;;;;;6282406;28;20245;-78
2023/04/20 03:39:39;;;;;;;14.67;13.27;;;6.50;76.90;;;;;;6285146;28;20244;-79
2023/04/20 03:42:44;;;;;;;15.37;13.93;;;6.60;76.80;;;;;;6278772;28;20627;-78
2023/04/20 03:45:48;;;;;;;15.03;13.50;;;6.60;76.80;;;;;;6281335;28;20229;-81
2023/04/20 03:48:51;;;;;;;16.67;15.00;;;6.60;77.00;;;;;;6273755;28;20692;-83
2023/04/20 03:51:54;;;;;;;16.37;14.77;;;6.60;77.00;;;;;;6280416;28;20773;-82
2023/04/20 03:54:57;;;;;;;15.13;13.57;;;6.60;77.00;;;;;;6286587;28;20741;-83
2023/04/20 03:58:02;;;;;;;17.00;15.27;;;6.60;77.00;;;;;;6288181;28;20229;-81
2023/04/20 04:01:07;;;;;;;16.50;14.80;;;6.60;77.10;;;;;;6288365;28;20375;-80
2023/04/20 04:04:10;;;;;;;16.40;14.27;;;6.60;77.10;;;;;;6280456;28;20399;-81
2023/04/20 04:07:14;;;;;;;18.20;14.93;;;6.70;77.20;;;;;;6288118;28;20283;-85
2023/04/20 04:10:17;;;;;;;16.80;15.00;;;6.70;77.20;;;;;;6289796;28;20273;-83
2023/04/20 04:13:22;;;;;;;18.03;16.17;;;6.70;77.20;;;;;;6281224;28;20290;-83
2023/04/20 04:16:25;;;;;;;18.87;16.50;;;6.70;77.30;;;;;;6283470;28;20242;-83
2023/04/20 04:19:28;;;;;;;20.97;17.27;;;6.70;77.40;;;;;;6267308;28;20233;-83
2023/04/20 04:22:31;;;;;;;17.73;15.43;;;6.70;77.50;;;;;;6278217;28;20263;-81
2023/04/20 04:25:37;;;;;;;19.00;15.57;;;6.60;77.40;;;;;;6280411;28;20227;-82
2023/04/20 04:28:44;;;;;;;18.57;16.20;;;6.60;77.50;;;;;;6276640;28;20338;-81
2023/04/20 04:31:47;;;;;;;18.87;16.23;;;6.60;77.50;;;;;;6288360;28;20295;-80
2023/04/20 04:34:51;;;;;;;20.87;16.60;;;6.60;77.50;;;;;;6294305;28;20737;-83
2023/04/20 04:37:54;;;;;;;18.20;15.60;;;6.70;77.30;;;;;;6291056;28;20716;-79
2023/04/20 04:40:58;;;;;;;20.70;17.10;;;6.70;77.30;;;;;;6278802;28;20311;-81
2023/04/20 04:44:02;;;;;;;19.17;16.93;;;6.70;77.20;;;;;;6287844;28;20263;-80
2023/04/20 04:47:08;;;;;;;22.23;17.60;;;6.70;77.10;;;;;;6283343;28;20230;-81
2023/04/20 04:50:15;;;;;;;19.03;17.03;;;6.70;76.90;;;;;;6288018;28;20237;-83
2023/04/20 04:53:19;;;;;;;21.03;17.00;;;6.60;77.00;;;;;;6280205;28;20230;-79
2023/04/20 04:56:22;;;;;;;19.33;16.80;;;6.60;77.10;;;;;;6285773;28;20725;-81
2023/04/20 04:59:27;;;;;;;20.50;17.70;;;6.60;77.20;;;;;;6287554;28;20261;-81
2023/04/20 05:02:30;;;;;;;21.40;16.73;;;6.70;76.90;;;;;;6283733;28;20851;-81
2023/04/20 05:05:33;;;;;;;20.37;17.10;;;6.70;76.90;;;;;;6287581;28;20243;-80
2023/04/20 05:08:36;;;;;;;22.20;18.27;;;6.60;77.20;;;;;;6278245;28;20235;-79
2023/04/20 05:11:40;;;;;;;21.07;17.70;;;6.60;77.30;;;;;;6279063;28;20366;-81
2023/04/20 05:14:44;;;;;;;24.73;19.57;;;6.70;77.30;;;;;;6281699;28;20310;-82
2023/04/20 05:17:48;;;;;;;19.10;17.00;;;6.70;77.30;;;;;;6284042;28;20237;-79
2023/04/20 05:20:52;;;;;;;20.13;17.20;;;6.70;77.30;;;;;;6282591;28;20240;-80
2023/04/20 05:23:55;;;;;;;20.93;18.57;;;6.70;77.30;;;;;;6284784;28;20751;-78
2023/04/20 05:26:58;;;;;;;22.03;19.17;;;6.80;77.30;;;;;;6278155;28;20244;-79
2023/04/20 05:30:03;;;;;;;26.60;20.63;;;6.80;77.20;;;;;;6286229;28;20315;-80
2023/04/20 05:33:22;;;;;;;19.97;17.77;;;6.90;76.90;;;;;;6281459;28;20245;-82
2023/04/20 05:36:26;;;;;;;23.93;18.27;;;6.90;76.90;;;;;;6283344;28;20832;-81
2023/04/20 05:39:29;;;;;;;21.30;17.37;;;7.00;76.90;;;;;;6285429;28;20237;-82
2023/04/20 05:42:32;;;;;;;19.73;17.63;;;7.00;76.90;;;;;;6286024;28;20636;-81
2023/04/20 05:45:36;;;;;;;22.07;18.33;;;7.00;76.90;;;;;;6288025;28;20320;-79
2023/04/20 05:48:39;;;;;;;22.20;17.67;;;7.10;76.30;;;;;;6285716;28;20241;-80
2023/04/20 05:51:42;;;;;;;19.00;16.70;;;7.20;76.00;;;;;;6284002;28;20837;-79
2023/04/20 05:54:45;;;;;;;21.37;19.03;;;7.20;75.90;;;;;;6284850;28;20236;-79
2023/04/20 05:57:50;;;;;;;20.33;17.30;;;7.20;75.30;;;;;;6283748;28;20241;-81
2023/04/20 06:00:55;;;;;;;20.20;17.97;;;7.20;75.50;;;;;;6285776;28;20243;-80
2023/04/20 06:04:09;;;;;;;22.10;18.27;;;7.20;75.40;;;;;;6274882;28;20642;-78
2023/04/20 06:07:30;;;;;;;21.37;17.60;;;7.20;75.10;;;;;;6271078;28;20760;-82
2023/04/20 06:10:33;;;;;;;20.50;18.27;;;7.30;74.80;;;;;;6285717;28;20831;-80
2023/04/20 06:13:36;;;;;;;21.87;18.73;;;7.40;74.50;;;;;;6283816;28;20232;-78
2023/04/20 06:20:48;;;;;;;18.33;16.40;;;7.50;73.90;;;;;;6275023;28;20312;-78
2023/04/20 06:23:51;;;;;;;17.60;15.30;;;7.50;74.00;;;;;;6290196;28;20255;-82
2023/04/20 06:26:54;;;;;;;20.03;16.33;;;7.60;74.10;;;;;;6285685;28;20304;-83
2023/04/20 06:29:57;;;;;;;18.20;16.27;;;7.70;73.80;;;;;;6284593;28;20237;-79
2023/04/20 06:33:01;;;;;;;20.17;16.40;;;7.70;73.30;;;;;;6281019;28;20323;-80
2023/04/20 06:36:08;;;;;;;19.97;17.67;;;7.70;73.30;;;;;;6279922;28;20686;-81
2023/04/20 06:39:11;;;;;;;18.03;16.07;;;7.80;73.10;;;;;;6287928;28;20229;-82
2023/04/20 06:42:14;;;;;;;22.03;16.97;;;7.80;73.00;;;;;;6278891;28;20398;-81
2023/04/20 06:45:18;;;;;;;22.40;17.57;;;7.80;73.20;;;;;;6290841;28;20251;-80
2023/04/20 06:48:21;;;;;;;21.13;16.87;;;7.80;73.20;;;;;;6279463;28;20325;-81
2023/04/20 06:51:35;;;;;;;21.43;16.93;;;7.80;73.20;;;;;;6292860;28;20234;-80
2023/04/20 06:54:38;;;;;;;19.20;16.83;;;7.90;73.20;;;;;;6304497;28;20233;-82
2023/04/20 06:57:42;;;;;;;21.23;17.03;;;8.00;72.90;;;;;;6308276;28;20433;-81
2023/04/20 07:00:46;;;;;;;18.40;16.37;;;8.10;72.70;;;;;;6300256;28;20234;-81
2023/04/20 07:03:50;;;;;;;18.33;16.43;;;8.20;72.60;;;;;;6296894;28;20745;-80
2023/04/20 07:06:55;;;;;;;18.53;16.83;;;8.40;72.50;;;;;;6296023;28;20236;-79
2023/04/20 07:09:58;;;;;;;19.30;17.23;;;8.60;72.00;;;;;;6285660;28;20228;-79
2023/04/20 07:13:01;;;;;;;22.90;17.27;;;8.90;70.50;;;;;;6285687;28;20320;-81
2023/04/20 07:16:04;;;;;;;17.03;15.23;;;8.90;69.70;;;;;;6292715;28;20623;-79
2023/04/20 07:19:07;;;;;;;21.40;18.23;;;8.90;70.00;;;;;;6290921;28;20319;-79
2023/04/20 07:22:12;;;;;;;19.83;17.83;;;9.00;70.00;;;;;;6303393;28;20315;-77
2023/04/20 07:25:16;;;;;;;20.27;18.10;;;9.00;69.90;;;;;;6301900;28;20237;-77
2023/04/20 07:28:19;;;;;;;19.43;17.50;;;8.90;70.00;;;;;;6296473;28;20230;-79
2023/04/20 07:31:23;;;;;;;21.50;18.70;;;9.00;70.30;;;;;;6289353;28;20249;-79
2023/04/20 07:34:26;;;;;;;21.43;19.13;;;9.00;70.20;;;;;;6276663;28;20242;-81
2023/04/20 07:37:30;;;;;;;20.00;17.90;;;9.20;69.90;;;;;;6284832;28;20245;-82
2023/04/20 07:40:34;;;;;;;17.37;15.67;;;9.40;69.60;;;;;;6296937;28;20237;-78
2023/04/20 07:43:37;;;;;;;19.63;17.40;;;9.50;69.30;;;;;;6284764;28;20233;-82
2023/04/20 07:46:40;;;;;;;19.93;18.03;;;9.60;69.20;;;;;;6293563;28;21305;-81
2023/04/20 07:49:44;;;;;;;19.50;17.40;;;9.70;68.70;;;;;;6287167;28;20229;-78
2023/04/20 07:52:48;;;;;;;19.70;17.70;;;9.70;68.60;;;;;;6291467;28;20229;-82
2023/04/20 07:55:51;;;;;;;17.27;15.40;;;9.80;68.10;;;;;;6287609;28;20229;-80
2023/04/20 07:58:54;;;;;;;17.73;16.13;;;9.80;67.50;;;;;;6291899;28;20225;-80
2023/04/20 08:02:00;;;;;;;17.40;15.63;;;9.80;67.60;;;;;;6288186;28;20324;-78
2023/04/20 08:05:03;;;;;;;17.40;15.70;;;9.80;67.10;;;;;;6288977;28;20229;-79
2023/04/20 08:08:08;;;;;;;17.83;15.77;;;9.90;67.10;;;;;;6283692;28;20371;-80
2023/04/20 08:11:12;;;;;;;18.10;16.20;;;9.80;66.70;;;;;;6287040;28;20245;-77
2023/04/20 08:14:15;;;;;;;17.23;15.53;;;9.80;66.90;;;;;;6280247;28;20233;-78
2023/04/20 08:17:19;;;;;;;18.40;16.40;;;9.80;67.10;;;;;;6280917;28;20704;-81
2023/04/20 08:20:22;;;;;;;19.17;15.90;;;10.00;66.90;;;;;;6283415;28;20241;-79
2023/04/20 08:23:27;;;;;;;17.90;16.30;;;10.00;67.20;;;;;;6279696;28;21150;-78
2023/04/20 08:26:30;;;;;;;16.47;14.87;;;10.10;66.60;;;;;;6279305;28;20739;-78
2023/04/20 08:29:34;;;;;;;17.23;15.63;;;10.30;66.40;;;;;;6288300;28;20248;-79
2023/04/20 08:32:37;;;;;;;15.60;14.00;;;10.40;65.40;;;;;;6294680;28;20314;-79
2023/04/20 08:35:40;;;;;;;17.57;15.97;;;10.50;65.30;;;;;;6283389;28;20864;-79
2023/04/20 08:38:44;;;;;;;18.67;15.63;;;10.50;65.00;;;;;;6296335;28;20229;-80
2023/04/20 08:41:49;;;;;;;16.40;14.73;;;10.40;65.00;;;;;;6284044;28;20229;-77
2023/04/20 08:44:53;;;;;;;17.63;15.73;;;10.30;65.20;;;;;;6291232;28;20225;-80
2023/04/20 08:47:58;;;;;;;17.53;15.73;;;10.10;65.70;;;;;;6280678;28;20720;-78
2023/04/20 08:51:02;;;;;;;16.93;15.13;;;10.00;65.60;;;;;;6284859;28;20234;-80
2023/04/20 08:54:07;;;;;;;17.87;16.07;;;10.00;66.00;;;;;;6289115;28;20725;-79
2023/04/20 08:57:10;;;;;;;17.07;15.47;;;9.80;65.90;;;;;;6295765;28;20275;-79
2023/04/20 09:00:14;;;;;;;16.53;14.93;;;9.70;66.30;;;;;;6290131;28;20339;-81
2023/04/20 09:03:17;;;;;;;17.50;15.70;;;9.60;67.10;;;;;;6290143;28;20828;-78
2023/04/20 09:06:21;;;;;;;17.30;15.60;;;9.40;67.60;;;;;;6288862;28;20244;-79
2023/04/20 09:09:27;;;;;;;16.97;15.40;;;9.40;68.20;;;;;;6282593;28;20241;-78
2023/04/20 09:12:41;;;;;;;16.80;15.10;;;9.40;68.80;;;;;;6297243;28;20243;-79
2023/04/20 09:15:44;;;;;;;17.27;15.50;;;9.30;69.30;;;;;;6297161;27;20709;-80
2023/04/20 09:18:53;;;;;;;18.33;16.63;;;9.20;69.60;;;;;;6293456;28;20233;-77
2023/04/20 09:21:58;;;;;;;18.63;16.73;;;9.20;70.40;;;;;;6296159;28;20285;-77
2023/04/20 09:25:13;;;;;;;19.47;16.10;;;9.20;70.80;;;;;;6319557;28;20214;-76
2023/04/20 09:28:17;;;;;;;17.93;16.03;;;9.10;70.90;;;;;;6318621;28;20243;-74
2023/04/20 09:31:21;;;;;;;18.57;16.67;;;9.10;71.20;;;;;;6325686;28;20252;-77
2023/04/20 09:34:24;;;;;;;18.67;16.67;;;9.10;71.50;;;;;;6320091;28;20225;-76
2023/04/20 09:37:27;;;;;;;16.83;15.23;;;9.10;71.80;;;;;;6322433;28;20418;-75
2023/04/20 09:40:33;;;;;;;16.77;15.17;;;9.20;71.80;;;;;;6315781;28;20232;-76
2023/04/20 09:43:36;;;;;;;17.47;15.70;;;9.40;72.00;;;;;;6317837;28;20445;-75
2023/04/20 09:46:40;;;;;;;16.87;15.20;;;9.50;71.80;;;;;;6317777;28;20419;-77
2023/04/20 09:49:45;;;;;;;17.17;15.47;;;9.70;71.70;;;;;;6301026;28;20312;-78
2023/04/20 09:52:50;;;;;;;16.20;14.50;;;10.00;71.50;;;;;;6290091;28;20233;-78
2023/04/20 09:55:55;;;;;;;16.30;14.80;;;10.10;71.20;;;;;;6292877;28;20914;-79
2023/04/20 09:58:59;;;;;;;17.20;15.57;;;10.30;71.10;;;;;;6281472;28;20236;-81
2023/04/20 10:02:02;;;;;;;15.20;13.80;;;10.60;70.00;;;;;;6285586;28;20237;-82
2023/04/20 10:05:07;;;;;;;14.57;13.30;;;10.70;68.60;;;;;;6289011;28;20249;-78
2023/04/20 10:08:11;;;;;;;14.63;13.33;;;10.90;68.60;;;;;;6285113;28;20236;-80
2023/04/20 10:11:26;;;;;;;16.33;14.83;;;11.10;67.20;;;;;;6290763;28;20253;-80
2023/04/20 10:14:39;;;;;;;14.57;13.37;;;11.20;67.30;;;;;;6287797;28;20242;-79
2023/04/20 10:17:42;;;;;;;15.50;14.10;;;11.40;67.50;;;;;;6289114;28;20233;-80
2023/04/20 10:20:46;;;;;;;14.87;13.47;;;11.50;66.90;;;;;;6295615;28;20485;-78
2023/04/20 10:23:49;;;;;;;13.57;12.40;;;11.80;66.50;;;;;;6321524;28;20275;-76
2023/04/20 10:26:54;;;;;;;14.50;13.13;;;12.10;65.50;;;;;;6313453;28;20239;-79
2023/04/20 10:29:57;;;;;;;12.93;11.87;;;12.20;65.10;;;;;;6319629;28;20285;-78
2023/04/20 10:33:08;;;;;;;13.33;12.23;;;12.20;64.60;;;;;;6317042;28;20225;-76
2023/04/20 10:36:23;;;;;;;13.13;12.13;;;12.50;64.40;;;;;;6312652;28;20239;-78
2023/04/20 10:39:28;;;;;;;12.80;11.60;;;12.70;63.30;;;;;;6318389;28;20241;-78
2023/04/20 10:42:43;;;;;;;14.53;13.17;;;12.50;64.00;;;;;;6301793;28;20248;-81
2023/04/20 10:45:46;;;;;;;13.47;12.47;;;12.50;63.30;;;;;;6289644;28;20229;-81
2023/04/20 10:48:54;;;;;;;13.13;12.13;;;12.70;64.10;;;;;;6307147;28;20241;-81
2023/04/20 10:51:57;;;;;;;13.77;12.60;;;12.80;63.60;;;;;;6295046;28;20487;-81
2023/04/20 10:55:00;;;;;;;14.00;12.80;;;13.00;62.90;;;;;;6279757;28;20237;-81
2023/04/20 10:58:04;;;;;;;14.73;13.53;;;13.10;62.10;;;;;;6293098;28;20325;-81
2023/04/20 11:01:07;;;;;;;13.23;11.97;;;12.80;62.70;;;;;;6294504;28;20375;-80
2023/04/20 11:04:12;;;;;;;13.60;12.60;;;12.50;63.30;;;;;;6290870;28;20253;-80
2023/04/20 11:07:17;;;;;;;14.97;13.77;;;12.60;64.10;;;;;;6289546;28;20234;-82
2023/04/20 11:10:21;;;;;;;15.03;13.73;;;12.70;63.70;;;;;;6288957;28;20249;-79
2023/04/20 11:13:28;;;;;;;13.13;12.03;;;12.80;63.40;;;;;;6290720;28;20364;-81
2023/04/20 11:16:31;;;;;;;13.80;12.70;;;13.00;63.50;;;;;;6285032;28;20794;-79
2023/04/20 11:19:51;;;;;;;12.90;11.77;;;13.30;63.50;;;;;;6294613;28;20237;-81
2023/04/20 11:22:58;;;;;;;15.60;14.20;;;13.50;62.40;;;;;;6297124;28;20241;-81
2023/04/20 11:26:01;;;;;;;15.03;13.50;;;13.50;62.10;;;;;;6293884;28;20229;-80
2023/04/20 11:29:06;;;;;;;12.67;11.60;;;13.60;62.30;;;;;;6297902;28;20523;-79
2023/04/20 11:32:12;;;;;;;14.37;13.07;;;13.60;62.20;;;;;;6288172;28;20256;-80
2023/04/20 11:35:15;;;;;;;13.37;12.07;;;13.60;61.60;;;;;;6278828;28;20316;-80
2023/04/20 11:38:27;;;;;;;13.73;12.57;;;13.50;62.30;;;;;;6303882;28;20332;-79
2023/04/20 11:41:30;;;;;;;14.93;13.63;;;13.50;62.50;;;;;;6288923;28;20396;-79
2023/04/20 11:44:35;;;;;;;15.37;14.07;;;13.60;62.40;;;;;;6291275;28;20233;-79
2023/04/20 11:47:40;;;;;;;15.47;13.97;;;13.60;61.80;;;;;;6283444;28;20242;-81
2023/04/20 11:50:43;;;;;;;16.03;14.67;;;13.60;63.00;;;;;;6281881;28;20241;-79
2023/04/20 11:53:46;;;;;;;14.17;12.97;;;13.70;62.70;;;;;;6285941;28;20261;-79
2023/04/20 11:56:49;;;;;;;14.43;13.30;;;14.00;62.30;;;;;;6288240;28;20812;-80
2023/04/20 11:59:55;;;;;;;15.77;14.37;;;14.00;62.10;;;;;;6286793;28;20236;-80
2023/04/20 12:02:58;;;;;;;15.13;13.80;;;14.10;61.60;;;;;;6289635;28;20643;-80
2023/04/20 12:06:02;;;;;;;15.53;14.23;;;14.20;61.70;;;;;;6285175;28;20240;-81
2023/04/20 12:09:06;;;;;;;14.97;13.60;;;14.30;61.60;;;;;;6288447;28;20895;-80
2023/04/20 12:12:09;;;;;;;15.37;14.07;;;14.20;61.10;;;;;;6290707;28;20324;-81
2023/04/20 12:15:13;;;;;;;15.97;14.57;;;14.20;61.30;;;;;;6287437;28;20233;-80
2023/04/20 12:18:17;;;;;;;15.57;14.03;;;14.20;61.80;;;;;;6288197;28;20328;-80
2023/04/20 12:21:20;;;;;;;16.37;15.03;;;14.30;62.40;;;;;;6284894;28;20247;-79
2023/04/20 12:24:24;;;;;;;15.77;14.17;;;14.60;61.60;;;;;;6278748;28;20235;-79
2023/04/20 12:27:27;;;;;;;14.93;13.70;;;14.90;61.40;;;;;;6283423;28;20233;-81
2023/04/20 12:30:31;;;;;;;13.97;12.60;;;14.90;61.10;;;;;;6285778;28;20241;-79
2023/04/20 12:33:34;;;;;;;14.97;13.67;;;15.00;61.50;;;;;;6289817;28;20264;-79
2023/04/20 12:36:37;;;;;;;15.67;14.17;;;14.70;61.40;;;;;;6288971;28;20233;-80
2023/04/20 12:39:40;;;;;;;14.60;13.30;;;14.60;60.80;;;;;;6297349;28;20237;-78
2023/04/20 12:42:45;;;;;;;14.50;13.13;;;14.40;60.90;;;;;;6283495;28;20605;-77
2023/04/20 12:45:50;;;;;;;15.03;13.73;;;14.40;61.50;;;;;;6293309;28;20244;-81
2023/04/20 12:48:53;;;;;;;15.33;13.80;;;14.40;61.40;;;;;;6289352;28;20464;-79
2023/04/20 12:51:56;;;;;;;14.53;13.27;;;14.50;60.30;;;;;;6288029;28;20724;-80
2023/04/20 12:55:00;;;;;;;13.80;12.60;;;14.30;60.50;;;;;;6287472;28;20229;-80
2023/04/20 12:58:03;;;;;;;14.13;13.03;;;14.30;60.80;;;;;;6282679;28;20244;-80
2023/04/20 13:01:08;;;;;;;14.93;13.73;;;14.50;60.90;;;;;;6289463;28;20935;-80
2023/04/20 13:04:11;;;;;;;16.90;15.30;;;14.60;61.20;;;;;;6279603;28;20376;-79
2023/04/20 13:07:14;;;;;;;15.43;14.20;;;14.70;60.00;;;;;;6286662;28;20260;-80
2023/04/20 13:10:17;;;;;;;15.53;14.17;;;14.60;61.10;;;;;;6285890;28;20314;-79
2023/04/20 13:13:20;;;;;;;16.23;14.67;;;14.80;60.50;;;;;;6285148;28;20237;-80
2023/04/20 13:16:25;;;;;;;13.93;12.67;;;15.00;60.30;;;;;;6286366;28;20278;-80
2023/04/20 13:19:29;;;;;;;17.10;15.40;;;15.10;60.50;;;;;;6287894;28;20241;-79
2023/04/20 13:22:32;;;;;;;15.83;14.40;;;15.20;60.00;;;;;;6282575;28;20244;-80
2023/04/20 13:25:37;;;;;;;13.57;12.27;;;15.30;59.80;;;;;;6285954;28;20841;-80
2023/04/20 13:28:40;;;;;;;16.40;14.80;;;15.30;60.30;;;;;;6285905;28;20237;-80
2023/04/20 13:31:46;;;;;;;16.63;14.03;;;15.50;59.20;;;;;;6285986;28;20287;-79
2023/04/20 13:34:49;;;;;;;13.77;12.57;;;15.50;59.10;;;;;;6283565;28;20731;-80
2023/04/20 13:37:52;;;;;;;14.80;13.40;;;15.50;59.00;;;;;;6281167;28;20229;-79
2023/04/20 13:40:55;;;;;;;14.70;13.23;;;15.70;58.70;;;;;;6283179;28;20244;-79
2023/04/20 13:44:00;;;;;;;13.90;12.63;;;15.80;57.60;;;;;;6289434;28;20228;-79
2023/04/20 13:47:05;;;;;;;14.60;13.20;;;15.60;57.80;;;;;;6284085;28;20654;-80
2023/04/20 13:50:09;;;;;;;14.20;12.73;;;15.60;58.20;;;;;;6291975;28;20229;-82
2023/04/20 13:53:12;;;;;;;14.33;13.10;;;15.40;57.80;;;;;;6286716;28;20253;-81
2023/04/20 13:56:16;;;;;;;13.93;12.00;;;15.20;58.30;;;;;;6285568;28;20245;-80
2023/04/20 13:59:19;;;;;;;13.07;11.97;;;15.20;58.40;;;;;;6287230;28;20233;-83
2023/04/20 14:02:23;;;;;;;13.20;11.90;;;15.10;59.00;;;;;;6292212;28;20237;-78
2023/04/20 14:05:26;;;;;;;13.17;12.07;;;15.30;58.70;;;;;;6299115;28;20233;-81
2023/04/20 14:08:30;;;;;;;13.37;12.07;;;15.40;57.90;;;;;;6293221;28;20247;-79
2023/04/20 14:11:33;;;;;;;13.00;11.70;;;15.70;58.10;;;;;;6279575;28;20241;-80
2023/04/20 14:14:36;;;;;;;17.07;12.43;;;15.90;57.30;;;;;;6284859;28;20629;-80
2023/04/20 14:17:40;;;;;;;12.00;11.03;;;16.00;57.90;;;;;;6288776;28;20229;-79
2023/04/20 14:20:44;;;;;;;13.73;12.53;;;16.00;57.40;;;;;;6292760;28;20679;-78
2023/04/20 14:23:52;;;;;;;13.53;12.27;;;16.10;57.60;;;;;;6282016;28;20453;-79
2023/04/20 14:26:55;;;;;;;13.27;12.07;;;16.10;57.30;;;;;;6298444;28;20306;-80
2023/04/20 14:29:58;;;;;;;12.70;11.60;;;16.00;57.40;;;;;;6287317;28;20225;-80
2023/04/20 14:33:04;;;;;;;12.40;11.37;;;16.00;56.70;;;;;;6287513;28;20736;-81
2023/04/20 14:36:08;;;;;;;14.23;12.13;;;16.00;56.60;;;;;;6285762;28;20232;-79
2023/04/20 14:39:11;;;;;;;12.93;11.63;;;15.80;57.00;;;;;;6285008;28;20229;-81
2023/04/20 14:42:14;;;;;;;11.23;10.33;;;15.80;56.80;;;;;;6282722;28;20249;-82
2023/04/20 14:45:17;;;;;;;11.90;10.80;;;16.10;57.30;;;;;;6287882;28;20280;-81
2023/04/20 14:48:23;;;;;;;12.67;10.77;;;16.40;56.80;;;;;;6293445;28;20374;-79
2023/04/20 14:51:26;;;;;;;10.93;9.93;;;16.60;56.40;;;;;;6283691;28;20314;-81
2023/04/20 14:54:29;;;;;;;10.77;10.00;;;16.70;55.90;;;;;;6284915;28;20233;-81
2023/04/20 14:57:35;;;;;;;11.03;10.03;;;16.70;55.40;;;;;;6285441;28;20243;-82
2023/04/20 15:00:38;;;;;;;10.43;9.40;;;16.70;55.30;;;;;;6290361;28;20757;-80
2023/04/20 15:03:43;;;;;;;10.07;9.13;;;16.70;55.50;;;;;;6280934;28;20242;-80
2023/04/20 15:06:46;;;;;;;8.77;8.27;;;16.60;55.00;;;;;;6289703;28;20315;-81
2023/04/20 15:09:49;;;;;;;10.20;9.13;;;16.60;55.60;;;;;;6292105;28;20272;-81
2023/04/20 15:12:52;;;;;;;10.63;9.30;;;16.50;55.50;;;;;;6282842;28;20240;-78
2023/04/20 15:15:55;;;;;;;9.60;8.77;;;16.50;55.20;;;;;;6284018;28;20236;-82
2023/04/20 15:19:00;;;;;;;9.47;8.77;;;16.40;54.90;;;;;;6286023;28;20838;-79
2023/04/20 15:22:03;;;;;;;9.50;8.77;;;16.20;54.80;;;;;;6279457;28;20237;-80
2023/04/20 15:25:07;;;;;;;11.57;9.00;;;16.00;55.70;;;;;;6286195;28;20230;-81
2023/04/20 15:28:10;;;;;;;8.90;8.17;;;16.00;55.70;;;;;;6296695;28;20257;-80
2023/04/20 15:31:17;;;;;;;9.63;8.83;;;16.00;55.20;;;;;;6294996;28;20388;-80
2023/04/20 15:34:21;;;;;;;8.70;8.20;;;16.00;55.30;;;;;;6282219;28;20727;-80
2023/04/20 15:37:24;;;;;;;8.90;8.30;;;16.00;55.50;;;;;;6281885;28;20245;-80
2023/04/20 15:40:28;;;;;;;8.97;8.37;;;16.00;55.70;;;;;;6297677;28;20267;-80
2023/04/20 15:43:31;;;;;;;9.10;8.47;;;16.10;55.40;;;;;;6290247;28;20247;-81
2023/04/20 15:46:35;;;;;;;8.77;8.03;;;16.10;55.30;;;;;;6284013;28;20336;-76
2023/04/20 15:49:40;;;;;;;8.50;7.87;;;16.10;55.60;;;;;;6289506;28;20236;-83